sensor_id;sensor_type;location;lat;lon;timestamp;temperature;humidity
76573;DHT22;65437;51.088;4.632;2022-12-10T00:00:15;14.30;53.70
76573;DHT22;65437;51.088;4.632;2022-12-10T00:02:42;14.30;54.20
76573;DHT22;65437;51.088;4.632;2022-12-10T00:05:09;14.20;53.70
76573;DHT22;65437;51.088;4.632;2022-12-10T00:07:36;14.10;53.90
76573;DHT22;65437;51.088;4.632;2022-12-10T00:10:03;14.10;53.30
76573;DHT22;65437;51.088;4.632;2022-12-10T00:12:31;14.00;54.00
76573;DHT22;65437;51.088;4.632;2022-12-10T00:14:57;14.10;54.50
76573;DHT22;65437;51.088;4.632;2022-12-10T00:17:25;14.00;54.20
76573;DHT22;65437;51.088;4.632;2022-12-10T00:19:51;14.00;53.70
76573;DHT22;65437;51.088;4.632;2022-12-10T00:22:18;13.80;54.10
76573;DHT22;65437;51.088;4.632;2022-12-10T00:24:46;13.80;54.30
76573;DHT22;65437;51.088;4.632;2022-12-10T00:27:13;14.30;55.60
76573;DHT22;65437;51.088;4.632;2022-12-10T00:29:40;14.60;55.00
76573;DHT22;65437;51.088;4.632;2022-12-10T00:32:07;14.90;54.00
76573;DHT22;65437;51.088;4.632;2022-12-10T00:34:34;14.70;52.90
76573;DHT22;65437;51.088;4.632;2022-12-10T00:37:02;14.60;53.20
76573;DHT22;65437;51.088;4.632;2022-12-10T00:39:29;14.70;53.40
76573;DHT22;65437;51.088;4.632;2022-12-10T00:41:56;14.80;53.00
76573;DHT22;65437;51.088;4.632;2022-12-10T00:44:23;15.00;52.70
76573;DHT22;65437;51.088;4.632;2022-12-10T00:46:50;15.10;52.20
76573;DHT22;65437;51.088;4.632;2022-12-10T00:49:17;15.20;52.20
76573;DHT22;65437;51.088;4.632;2022-12-10T00:51:44;15.40;51.60
76573;DHT22;65437;51.088;4.632;2022-12-10T00:54:11;15.20;51.10
76573;DHT22;65437;51.088;4.632;2022-12-10T00:56:38;14.80;51.30
76573;DHT22;65437;51.088;4.632;2022-12-10T00:59:05;14.50;52.40
76573;DHT22;65437;51.088;4.632;2022-12-10T01:01:36;14.40;53.00
76573;DHT22;65437;51.088;4.632;2022-12-10T01:04:05;14.30;52.90
76573;DHT22;65437;51.088;4.632;2022-12-10T01:06:33;14.20;53.00
76573;DHT22;65437;51.088;4.632;2022-12-10T01:09:02;14.00;53.80
76573;DHT22;65437;51.088;4.632;2022-12-10T01:11:30;14.10;54.30
76573;DHT22;65437;51.088;4.632;2022-12-10T01:13:57;14.30;54.40
76573;DHT22;65437;51.088;4.632;2022-12-10T01:16:24;14.20;53.40
76573;DHT22;65437;51.088;4.632;2022-12-10T01:18:55;14.10;54.00
76573;DHT22;65437;51.088;4.632;2022-12-10T01:21:22;14.00;53.90
76573;DHT22;65437;51.088;4.632;2022-12-10T01:23:50;14.00;53.70
76573;DHT22;65437;51.088;4.632;2022-12-10T01:26:19;13.90;54.10
76573;DHT22;65437;51.088;4.632;2022-12-10T01:28:46;14.00;54.40
76573;DHT22;65437;51.088;4.632;2022-12-10T01:31:14;13.90;53.70
76573;DHT22;65437;51.088;4.632;2022-12-10T01:33:42;14.00;54.60
76573;DHT22;65437;51.088;4.632;2022-12-10T01:36:10;14.00;53.90
76573;DHT22;65437;51.088;4.632;2022-12-10T01:38:37;14.00;52.90
76573;DHT22;65437;51.088;4.632;2022-12-10T01:41:05;13.90;54.10
76573;DHT22;65437;51.088;4.632;2022-12-10T01:46:18;13.90;53.60
76573;DHT22;65437;51.088;4.632;2022-12-10T01:48:45;13.80;54.40
76573;DHT22;65437;51.088;4.632;2022-12-10T01:51:12;14.00;54.80
76573;DHT22;65437;51.088;4.632;2022-12-10T01:53:40;14.10;54.30
76573;DHT22;65437;51.088;4.632;2022-12-10T01:56:09;14.10;54.40
76573;DHT22;65437;51.088;4.632;2022-12-10T01:58:36;14.00;54.60
76573;DHT22;65437;51.088;4.632;2022-12-10T02:01:08;13.90;54.90
76573;DHT22;65437;51.088;4.632;2022-12-10T02:03:44;14.10;55.50
76573;DHT22;65437;51.088;4.632;2022-12-10T02:06:22;14.20;54.70
76573;DHT22;65437;51.088;4.632;2022-12-10T02:08:51;14.20;53.80
76573;DHT22;65437;51.088;4.632;2022-12-10T02:11:17;14.30;54.60
76573;DHT22;65437;51.088;4.632;2022-12-10T02:13:58;14.20;54.20
76573;DHT22;65437;51.088;4.632;2022-12-10T02:16:35;14.10;54.20
76573;DHT22;65437;51.088;4.632;2022-12-10T02:19:13;13.90;54.50
76573;DHT22;65437;51.088;4.632;2022-12-10T02:21:40;14.00;55.60
76573;DHT22;65437;51.088;4.632;2022-12-10T02:24:08;14.40;56.10
76573;DHT22;65437;51.088;4.632;2022-12-10T02:26:40;14.80;54.90
76573;DHT22;65437;51.088;4.632;2022-12-10T02:29:19;15.00;54.90
76573;DHT22;65437;51.088;4.632;2022-12-10T02:31:47;15.30;54.20
76573;DHT22;65437;51.088;4.632;2022-12-10T02:34:15;15.40;54.20
76573;DHT22;65437;51.088;4.632;2022-12-10T02:36:43;15.50;54.50
76573;DHT22;65437;51.088;4.632;2022-12-10T02:39:11;15.60;54.80
76573;DHT22;65437;51.088;4.632;2022-12-10T02:41:40;15.70;54.70
76573;DHT22;65437;51.088;4.632;2022-12-10T02:44:09;15.80;54.60
76573;DHT22;65437;51.088;4.632;2022-12-10T02:46:36;15.80;54.30
76573;DHT22;65437;51.088;4.632;2022-12-10T02:49:06;15.80;54.20
76573;DHT22;65437;51.088;4.632;2022-12-10T02:51:33;15.90;54.30
76573;DHT22;65437;51.088;4.632;2022-12-10T02:54:01;15.90;54.10
76573;DHT22;65437;51.088;4.632;2022-12-10T02:56:45;15.90;54.10
76573;DHT22;65437;51.088;4.632;2022-12-10T02:59:19;15.90;54.00
76573;DHT22;65437;51.088;4.632;2022-12-10T03:01:50;15.90;54.10
76573;DHT22;65437;51.088;4.632;2022-12-10T03:04:20;15.90;53.90
76573;DHT22;65437;51.088;4.632;2022-12-10T03:06:44;15.80;53.70
76573;DHT22;65437;51.088;4.632;2022-12-10T03:09:17;15.80;54.00
76573;DHT22;65437;51.088;4.632;2022-12-10T03:11:39;15.90;54.00
76573;DHT22;65437;51.088;4.632;2022-12-10T03:16:41;15.90;53.60
76573;DHT22;65437;51.088;4.632;2022-12-10T03:19:13;16.00;53.60
76573;DHT22;65437;51.088;4.632;2022-12-10T03:21:36;15.90;53.20
76573;DHT22;65437;51.088;4.632;2022-12-10T03:24:04;16.00;53.40
76573;DHT22;65437;51.088;4.632;2022-12-10T03:26:32;16.00;53.20
76573;DHT22;65437;51.088;4.632;2022-12-10T03:29:05;16.00;53.10
76573;DHT22;65437;51.088;4.632;2022-12-10T03:31:28;16.00;52.60
76573;DHT22;65437;51.088;4.632;2022-12-10T03:33:55;15.70;52.50
76573;DHT22;65437;51.088;4.632;2022-12-10T03:36:23;15.80;53.40
76573;DHT22;65437;51.088;4.632;2022-12-10T03:38:50;15.80;53.40
76573;DHT22;65437;51.088;4.632;2022-12-10T03:41:17;15.90;53.20
76573;DHT22;65437;51.088;4.632;2022-12-10T03:43:51;16.00;53.10
76573;DHT22;65437;51.088;4.632;2022-12-10T03:46:19;16.00;53.00
76573;DHT22;65437;51.088;4.632;2022-12-10T03:48:46;15.80;52.30
76573;DHT22;65437;51.088;4.632;2022-12-10T03:51:13;15.80;53.00
76573;DHT22;65437;51.088;4.632;2022-12-10T03:53:41;15.80;53.20
76573;DHT22;65437;51.088;4.632;2022-12-10T03:56:08;15.80;53.10
76573;DHT22;65437;51.088;4.632;2022-12-10T03:58:35;15.90;53.00
76573;DHT22;65437;51.088;4.632;2022-12-10T04:01:03;16.00;52.70
76573;DHT22;65437;51.088;4.632;2022-12-10T04:03:30;16.10;52.50
76573;DHT22;65437;51.088;4.632;2022-12-10T04:06:03;16.10;52.40
76573;DHT22;65437;51.088;4.632;2022-12-10T04:08:31;16.00;52.20
76573;DHT22;65437;51.088;4.632;2022-12-10T04:11:07;16.10;52.20
76573;DHT22;65437;51.088;4.632;2022-12-10T04:13:30;16.10;52.20
76573;DHT22;65437;51.088;4.632;2022-12-10T04:16:16;16.00;52.30
76573;DHT22;65437;51.088;4.632;2022-12-10T04:18:55;16.00;52.50
76573;DHT22;65437;51.088;4.632;2022-12-10T04:21:23;16.00;52.50
76573;DHT22;65437;51.088;4.632;2022-12-10T04:24:09;16.00;52.50
76573;DHT22;65437;51.088;4.632;2022-12-10T04:26:54;16.00;52.40
76573;DHT22;65437;51.088;4.632;2022-12-10T04:29:22;16.00;52.50
76573;DHT22;65437;51.088;4.632;2022-12-10T04:31:49;16.10;52.50
76573;DHT22;65437;51.088;4.632;2022-12-10T04:34:17;16.10;52.40
76573;DHT22;65437;51.088;4.632;2022-12-10T04:36:44;16.10;52.40
76573;DHT22;65437;51.088;4.632;2022-12-10T04:39:11;15.80;51.30
76573;DHT22;65437;51.088;4.632;2022-12-10T04:41:40;15.50;51.00
76573;DHT22;65437;51.088;4.632;2022-12-10T04:44:07;15.40;52.90
76573;DHT22;65437;51.088;4.632;2022-12-10T04:46:34;15.20;53.40
76573;DHT22;65437;51.088;4.632;2022-12-10T04:49:02;15.40;53.90
76573;DHT22;65437;51.088;4.632;2022-12-10T04:51:29;15.50;53.60
76573;DHT22;65437;51.088;4.632;2022-12-10T04:53:56;15.60;53.30
76573;DHT22;65437;51.088;4.632;2022-12-10T04:56:23;15.70;52.20
76573;DHT22;65437;51.088;4.632;2022-12-10T04:58:50;15.60;52.80
76573;DHT22;65437;51.088;4.632;2022-12-10T05:01:17;15.70;52.90
76573;DHT22;65437;51.088;4.632;2022-12-10T05:03:47;15.80;52.70
76573;DHT22;65437;51.088;4.632;2022-12-10T05:06:15;15.80;52.50
76573;DHT22;65437;51.088;4.632;2022-12-10T05:08:43;15.60;51.30
76573;DHT22;65437;51.088;4.632;2022-12-10T05:11:14;15.40;52.40
76573;DHT22;65437;51.088;4.632;2022-12-10T05:13:41;15.40;53.00
76573;DHT22;65437;51.088;4.632;2022-12-10T05:16:10;15.50;52.90
76573;DHT22;65437;51.088;4.632;2022-12-10T05:18:37;15.60;52.90
76573;DHT22;65437;51.088;4.632;2022-12-10T05:21:05;15.50;51.80
76573;DHT22;65437;51.088;4.632;2022-12-10T05:23:32;15.20;52.20
76573;DHT22;65437;51.088;4.632;2022-12-10T05:26:03;14.90;50.70
76573;DHT22;65437;51.088;4.632;2022-12-10T05:28:31;14.90;53.00
76573;DHT22;65437;51.088;4.632;2022-12-10T05:30:59;15.20;53.50
76573;DHT22;65437;51.088;4.632;2022-12-10T05:33:26;15.40;53.10
76573;DHT22;65437;51.088;4.632;2022-12-10T05:36:02;15.50;52.80
76573;DHT22;65437;51.088;4.632;2022-12-10T05:38:25;15.50;52.40
76573;DHT22;65437;51.088;4.632;2022-12-10T05:40:52;15.50;52.40
76573;DHT22;65437;51.088;4.632;2022-12-10T05:43:19;15.60;52.60
76573;DHT22;65437;51.088;4.632;2022-12-10T05:45:46;15.70;52.40
76573;DHT22;65437;51.088;4.632;2022-12-10T05:48:14;15.70;52.20
76573;DHT22;65437;51.088;4.632;2022-12-10T05:50:42;15.60;51.90
76573;DHT22;65437;51.088;4.632;2022-12-10T05:53:09;15.70;52.10
76573;DHT22;65437;51.088;4.632;2022-12-10T05:55:38;15.80;52.00
76573;DHT22;65437;51.088;4.632;2022-12-10T05:58:05;15.70;52.00
76573;DHT22;65437;51.088;4.632;2022-12-10T06:00:32;15.60;51.80
76573;DHT22;65437;51.088;4.632;2022-12-10T06:02:59;15.50;51.50
76573;DHT22;65437;51.088;4.632;2022-12-10T06:05:26;15.30;52.40
76573;DHT22;65437;51.088;4.632;2022-12-10T06:07:53;15.40;52.80
76573;DHT22;65437;51.088;4.632;2022-12-10T06:10:20;15.40;52.50
76573;DHT22;65437;51.088;4.632;2022-12-10T06:12:47;15.50;52.70
76573;DHT22;65437;51.088;4.632;2022-12-10T06:15:14;15.60;52.10
76573;DHT22;65437;51.088;4.632;2022-12-10T06:17:41;15.70;52.10
76573;DHT22;65437;51.088;4.632;2022-12-10T06:20:08;15.70;52.00
76573;DHT22;65437;51.088;4.632;2022-12-10T06:22:35;15.80;52.00
76573;DHT22;65437;51.088;4.632;2022-12-10T06:25:02;15.80;51.60
76573;DHT22;65437;51.088;4.632;2022-12-10T06:27:31;15.80;51.70
76573;DHT22;65437;51.088;4.632;2022-12-10T06:29:58;15.80;51.70
76573;DHT22;65437;51.088;4.632;2022-12-10T06:32:25;15.80;51.70
76573;DHT22;65437;51.088;4.632;2022-12-10T06:34:52;15.90;51.70
76573;DHT22;65437;51.088;4.632;2022-12-10T06:37:19;15.90;51.70
76573;DHT22;65437;51.088;4.632;2022-12-10T06:39:46;15.80;51.40
76573;DHT22;65437;51.088;4.632;2022-12-10T06:42:13;15.90;51.60
76573;DHT22;65437;51.088;4.632;2022-12-10T06:44:40;15.80;51.70
76573;DHT22;65437;51.088;4.632;2022-12-10T06:47:07;15.70;51.50
76573;DHT22;65437;51.088;4.632;2022-12-10T06:49:34;15.70;51.90
76573;DHT22;65437;51.088;4.632;2022-12-10T06:52:01;15.70;51.70
76573;DHT22;65437;51.088;4.632;2022-12-10T06:54:29;15.60;51.00
76573;DHT22;65437;51.088;4.632;2022-12-10T06:56:56;15.70;51.90
76573;DHT22;65437;51.088;4.632;2022-12-10T06:59:23;15.30;50.00
76573;DHT22;65437;51.088;4.632;2022-12-10T07:01:50;15.20;52.70
76573;DHT22;65437;51.088;4.632;2022-12-10T07:04:17;15.30;52.40
76573;DHT22;65437;51.088;4.632;2022-12-10T07:06:44;15.40;52.40
76573;DHT22;65437;51.088;4.632;2022-12-10T07:09:11;15.40;52.30
76573;DHT22;65437;51.088;4.632;2022-12-10T07:11:38;15.40;52.30
76573;DHT22;65437;51.088;4.632;2022-12-10T07:14:05;15.60;52.30
76573;DHT22;65437;51.088;4.632;2022-12-10T07:16:33;15.80;51.70
76573;DHT22;65437;51.088;4.632;2022-12-10T07:19:00;16.00;51.00
76573;DHT22;65437;51.088;4.632;2022-12-10T07:21:29;16.00;50.80
76573;DHT22;65437;51.088;4.632;2022-12-10T07:23:57;16.00;50.70
76573;DHT22;65437;51.088;4.632;2022-12-10T07:26:24;15.80;50.80
76573;DHT22;65437;51.088;4.632;2022-12-10T07:28:52;15.80;51.10
76573;DHT22;65437;51.088;4.632;2022-12-10T07:31:19;15.70;51.20
76573;DHT22;65437;51.088;4.632;2022-12-10T07:33:46;15.80;51.30
76573;DHT22;65437;51.088;4.632;2022-12-10T07:36:13;15.80;51.10
76573;DHT22;65437;51.088;4.632;2022-12-10T07:38:40;15.80;50.90
76573;DHT22;65437;51.088;4.632;2022-12-10T07:41:09;15.90;50.90
76573;DHT22;65437;51.088;4.632;2022-12-10T07:43:36;15.90;50.70
76573;DHT22;65437;51.088;4.632;2022-12-10T07:46:10;15.90;50.70
76573;DHT22;65437;51.088;4.632;2022-12-10T07:48:34;16.00;50.50
76573;DHT22;65437;51.088;4.632;2022-12-10T07:51:02;16.00;50.50
76573;DHT22;65437;51.088;4.632;2022-12-10T07:53:29;15.90;49.90
76573;DHT22;65437;51.088;4.632;2022-12-10T07:55:56;15.90;50.30
76573;DHT22;65437;51.088;4.632;2022-12-10T07:58:23;15.80;50.40
76573;DHT22;65437;51.088;4.632;2022-12-10T08:00:50;15.80;51.10
76573;DHT22;65437;51.088;4.632;2022-12-10T08:03:18;15.90;50.60
76573;DHT22;65437;51.088;4.632;2022-12-10T08:05:45;15.80;50.60
76573;DHT22;65437;51.088;4.632;2022-12-10T08:08:11;15.60;50.30
76573;DHT22;65437;51.088;4.632;2022-12-10T08:10:39;15.60;50.90
76573;DHT22;65437;51.088;4.632;2022-12-10T08:13:06;15.70;51.00
76573;DHT22;65437;51.088;4.632;2022-12-10T08:15:33;15.80;50.80
76573;DHT22;65437;51.088;4.632;2022-12-10T08:18:00;15.50;50.20
76573;DHT22;65437;51.088;4.632;2022-12-10T08:20:27;15.70;50.90
76573;DHT22;65437;51.088;4.632;2022-12-10T08:22:54;15.70;50.90
76573;DHT22;65437;51.088;4.632;2022-12-10T08:25:21;15.80;50.70
76573;DHT22;65437;51.088;4.632;2022-12-10T08:27:48;15.70;50.30
76573;DHT22;65437;51.088;4.632;2022-12-10T08:30:15;15.70;50.60
76573;DHT22;65437;51.088;4.632;2022-12-10T08:32:42;15.80;50.70
76573;DHT22;65437;51.088;4.632;2022-12-10T08:35:09;15.80;50.60
76573;DHT22;65437;51.088;4.632;2022-12-10T08:37:36;15.90;50.50
76573;DHT22;65437;51.088;4.632;2022-12-10T08:40:03;15.90;50.30
76573;DHT22;65437;51.088;4.632;2022-12-10T08:42:35;15.90;50.20
76573;DHT22;65437;51.088;4.632;2022-12-10T08:44:59;15.90;50.10
76573;DHT22;65437;51.088;4.632;2022-12-10T08:47:27;15.90;50.20
76573;DHT22;65437;51.088;4.632;2022-12-10T08:49:55;15.90;50.20
76573;DHT22;65437;51.088;4.632;2022-12-10T08:52:21;16.00;50.20
76573;DHT22;65437;51.088;4.632;2022-12-10T08:54:49;15.90;50.10
76573;DHT22;65437;51.088;4.632;2022-12-10T08:57:16;15.90;50.20
76573;DHT22;65437;51.088;4.632;2022-12-10T08:59:43;15.90;50.20
76573;DHT22;65437;51.088;4.632;2022-12-10T09:02:10;16.00;50.30
76573;DHT22;65437;51.088;4.632;2022-12-10T09:04:37;16.00;50.10
76573;DHT22;65437;51.088;4.632;2022-12-10T09:07:05;16.00;50.00
76573;DHT22;65437;51.088;4.632;2022-12-10T09:09:32;16.00;50.00
76573;DHT22;65437;51.088;4.632;2022-12-10T09:11:58;16.00;49.80
76573;DHT22;65437;51.088;4.632;2022-12-10T09:14:25;15.90;49.80
76573;DHT22;65437;51.088;4.632;2022-12-10T09:16:53;15.90;50.10
76573;DHT22;65437;51.088;4.632;2022-12-10T09:19:20;15.90;50.20
76573;DHT22;65437;51.088;4.632;2022-12-10T09:21:47;15.90;50.50
76573;DHT22;65437;51.088;4.632;2022-12-10T09:24:14;16.20;50.40
76573;DHT22;65437;51.088;4.632;2022-12-10T09:26:41;16.30;49.90
76573;DHT22;65437;51.088;4.632;2022-12-10T09:29:08;16.50;49.60
76573;DHT22;65437;51.088;4.632;2022-12-10T09:31:35;16.50;49.10
76573;DHT22;65437;51.088;4.632;2022-12-10T09:34:02;16.40;49.30
76573;DHT22;65437;51.088;4.632;2022-12-10T09:36:29;15.90;49.50
76573;DHT22;65437;51.088;4.632;2022-12-10T09:38:56;15.60;50.30
76573;DHT22;65437;51.088;4.632;2022-12-10T09:51:59;14.90;53.00
76573;DHT22;65437;51.088;4.632;2022-12-10T09:54:24;14.90;53.30
76573;DHT22;65437;51.088;4.632;2022-12-10T09:56:50;14.90;53.20
76573;DHT22;65437;51.088;4.632;2022-12-10T09:59:19;15.00;53.20
76573;DHT22;65437;51.088;4.632;2022-12-10T10:01:47;14.40;51.20
76573;DHT22;65437;51.088;4.632;2022-12-10T10:04:15;14.00;53.60
76573;DHT22;65437;51.088;4.632;2022-12-10T10:06:42;13.90;54.90
76573;DHT22;65437;51.088;4.632;2022-12-10T10:09:09;13.90;53.90
76573;DHT22;65437;51.088;4.632;2022-12-10T10:11:38;13.80;53.80
76573;DHT22;65437;51.088;4.632;2022-12-10T10:14:06;13.80;54.50
76573;DHT22;65437;51.088;4.632;2022-12-10T10:16:35;13.90;55.30
76573;DHT22;65437;51.088;4.632;2022-12-10T10:19:03;14.20;55.10
76573;DHT22;65437;51.088;4.632;2022-12-10T10:21:34;14.40;54.90
76573;DHT22;65437;51.088;4.632;2022-12-10T10:24:02;14.40;54.70
76573;DHT22;65437;51.088;4.632;2022-12-10T10:26:29;14.80;54.90
76573;DHT22;65437;51.088;4.632;2022-12-10T10:29:02;15.30;55.10
76573;DHT22;65437;51.088;4.632;2022-12-10T10:31:25;15.70;54.10
76573;DHT22;65437;51.088;4.632;2022-12-10T10:33:57;15.90;53.20
76573;DHT22;65437;51.088;4.632;2022-12-10T10:36:25;16.10;52.20
76573;DHT22;65437;51.088;4.632;2022-12-10T10:38:52;16.30;51.50
76573;DHT22;65437;51.088;4.632;2022-12-10T10:41:19;16.50;50.80
76573;DHT22;65437;51.088;4.632;2022-12-10T10:43:47;16.50;48.80
76573;DHT22;65437;51.088;4.632;2022-12-10T10:46:16;16.00;47.30
76573;DHT22;65437;51.088;4.632;2022-12-10T10:48:44;16.10;49.00
76573;DHT22;65437;51.088;4.632;2022-12-10T10:56:10;15.90;48.50
76573;DHT22;65437;51.088;4.632;2022-12-10T11:01:25;16.20;48.10
76573;DHT22;65437;51.088;4.632;2022-12-10T11:03:57;16.20;47.70
76573;DHT22;65437;51.088;4.632;2022-12-10T11:06:24;16.30;47.00
76573;DHT22;65437;51.088;4.632;2022-12-10T11:08:53;16.50;47.10
76573;DHT22;65437;51.088;4.632;2022-12-10T11:11:20;16.70;47.00
76573;DHT22;65437;51.088;4.632;2022-12-10T11:13:48;16.70;47.10
76573;DHT22;65437;51.088;4.632;2022-12-10T11:18:57;16.40;47.10
76573;DHT22;65437;51.088;4.632;2022-12-10T11:21:25;16.40;47.00
76573;DHT22;65437;51.088;4.632;2022-12-10T11:23:53;16.00;46.30
76573;DHT22;65437;51.088;4.632;2022-12-10T11:34:47;15.60;48.30
76573;DHT22;65437;51.088;4.632;2022-12-10T11:39:50;16.10;48.00
76573;DHT22;65437;51.088;4.632;2022-12-10T11:42:17;16.10;47.40
76573;DHT22;65437;51.088;4.632;2022-12-10T11:45:02;15.90;46.50
76573;DHT22;65437;51.088;4.632;2022-12-10T11:47:33;15.60;47.60
76573;DHT22;65437;51.088;4.632;2022-12-10T11:55:19;14.50;49.30
76573;DHT22;65437;51.088;4.632;2022-12-10T11:57:47;14.20;50.20
76573;DHT22;65437;51.088;4.632;2022-12-10T12:00:17;14.50;51.70
76573;DHT22;65437;51.088;4.632;2022-12-10T12:10:52;14.90;51.00
76573;DHT22;65437;51.088;4.632;2022-12-10T12:13:19;15.00;51.40
76573;DHT22;65437;51.088;4.632;2022-12-10T12:15:54;15.20;50.80
76573;DHT22;65437;51.088;4.632;2022-12-10T12:18:28;15.10;50.60
76573;DHT22;65437;51.088;4.632;2022-12-10T12:21:01;15.00;50.00
76573;DHT22;65437;51.088;4.632;2022-12-10T12:23:29;14.60;49.50
76573;DHT22;65437;51.088;4.632;2022-12-10T12:26:00;14.60;51.00
76573;DHT22;65437;51.088;4.632;2022-12-10T12:28:27;14.60;50.70
76573;DHT22;65437;51.088;4.632;2022-12-10T12:31:01;14.30;50.90
76573;DHT22;65437;51.088;4.632;2022-12-10T12:35:55;14.80;51.50
76573;DHT22;65437;51.088;4.632;2022-12-10T12:38:31;14.80;50.10
76573;DHT22;65437;51.088;4.632;2022-12-10T12:41:04;14.60;49.70
76573;DHT22;65437;51.088;4.632;2022-12-10T12:43:31;14.40;50.50
76573;DHT22;65437;51.088;4.632;2022-12-10T12:45:56;14.30;51.30
76573;DHT22;65437;51.088;4.632;2022-12-10T12:48:31;14.50;51.80
76573;DHT22;65437;51.088;4.632;2022-12-10T12:51:01;14.50;50.80
76573;DHT22;65437;51.088;4.632;2022-12-10T12:53:28;14.50;51.40
76573;DHT22;65437;51.088;4.632;2022-12-10T12:58:48;14.60;51.10
76573;DHT22;65437;51.088;4.632;2022-12-10T13:01:20;14.50;51.10
76573;DHT22;65437;51.088;4.632;2022-12-10T13:03:47;14.40;50.40
76573;DHT22;65437;51.088;4.632;2022-12-10T13:06:28;14.10;50.80
76573;DHT22;65437;51.088;4.632;2022-12-10T13:09:15;14.10;51.30
76573;DHT22;65437;51.088;4.632;2022-12-10T13:11:35;14.20;52.00
76573;DHT22;65437;51.088;4.632;2022-12-10T13:14:11;14.20;50.70
76573;DHT22;65437;51.088;4.632;2022-12-10T13:24:22;13.60;52.00
76573;DHT22;65437;51.088;4.632;2022-12-10T13:27:02;13.60;51.90
76573;DHT22;65437;51.088;4.632;2022-12-10T13:29:29;13.40;51.30
76573;DHT22;65437;51.088;4.632;2022-12-10T13:32:02;13.40;52.70
76573;DHT22;65437;51.088;4.632;2022-12-10T13:34:31;13.50;52.30
76573;DHT22;65437;51.088;4.632;2022-12-10T13:45:00;14.10;51.80
76573;DHT22;65437;51.088;4.632;2022-12-10T13:50:05;14.40;51.60
76573;DHT22;65437;51.088;4.632;2022-12-10T13:52:39;14.10;50.50
76573;DHT22;65437;51.088;4.632;2022-12-10T13:57:45;14.20;51.50
76573;DHT22;65437;51.088;4.632;2022-12-10T14:05:22;14.50;51.40
76573;DHT22;65437;51.088;4.632;2022-12-10T14:07:48;14.60;50.90
76573;DHT22;65437;51.088;4.632;2022-12-10T14:10:16;14.40;50.20
76573;DHT22;65437;51.088;4.632;2022-12-10T14:12:44;13.80;50.00
76573;DHT22;65437;51.088;4.632;2022-12-10T14:15:16;13.70;51.40
76573;DHT22;65437;51.088;4.632;2022-12-10T14:17:44;13.60;51.70
76573;DHT22;65437;51.088;4.632;2022-12-10T14:20:16;13.50;51.00
76573;DHT22;65437;51.088;4.632;2022-12-10T14:22:46;13.30;51.80
76573;DHT22;65437;51.088;4.632;2022-12-10T14:25:15;13.70;53.00
76573;DHT22;65437;51.088;4.632;2022-12-10T14:27:43;13.80;51.90
76573;DHT22;65437;51.088;4.632;2022-12-10T14:32:42;13.60;51.70
76573;DHT22;65437;51.088;4.632;2022-12-10T14:35:18;13.60;51.70
76573;DHT22;65437;51.088;4.632;2022-12-10T14:37:42;13.50;51.30
76573;DHT22;65437;51.088;4.632;2022-12-10T14:40:09;13.50;52.10
76573;DHT22;65437;51.088;4.632;2022-12-10T14:42:38;13.70;52.10
76573;DHT22;65437;51.088;4.632;2022-12-10T14:45:06;13.80;52.30
76573;DHT22;65437;51.088;4.632;2022-12-10T14:47:37;14.30;52.80
76573;DHT22;65437;51.088;4.632;2022-12-10T14:50:14;14.80;51.90
76573;DHT22;65437;51.088;4.632;2022-12-10T14:52:34;15.10;50.70
76573;DHT22;65437;51.088;4.632;2022-12-10T14:55:02;15.10;50.40
76573;DHT22;65437;51.088;4.632;2022-12-10T14:57:34;15.40;50.50
76573;DHT22;65437;51.088;4.632;2022-12-10T15:00:05;15.60;49.80
76573;DHT22;65437;51.088;4.632;2022-12-10T15:02:38;15.70;49.70
76573;DHT22;65437;51.088;4.632;2022-12-10T15:05:25;15.60;49.50
76573;DHT22;65437;51.088;4.632;2022-12-10T15:07:37;15.40;48.70
76573;DHT22;65437;51.088;4.632;2022-12-10T15:10:07;14.50;49.00
76573;DHT22;65437;51.088;4.632;2022-12-10T15:12:38;14.10;50.50
76573;DHT22;65437;51.088;4.632;2022-12-10T15:15:10;13.70;50.80
76573;DHT22;65437;51.088;4.632;2022-12-10T15:17:37;13.40;51.70
76573;DHT22;65437;51.088;4.632;2022-12-10T15:20:24;13.50;52.50
76573;DHT22;65437;51.088;4.632;2022-12-10T15:22:52;14.00;53.00
76573;DHT22;65437;51.088;4.632;2022-12-10T15:25:20;14.40;52.40
76573;DHT22;65437;51.088;4.632;2022-12-10T15:27:58;14.10;51.10
76573;DHT22;65437;51.088;4.632;2022-12-10T15:30:37;14.20;51.80
76573;DHT22;65437;51.088;4.632;2022-12-10T15:33:00;14.60;51.80
76573;DHT22;65437;51.088;4.632;2022-12-10T15:35:28;15.00;51.20
76573;DHT22;65437;51.088;4.632;2022-12-10T15:37:55;14.80;50.00
76573;DHT22;65437;51.088;4.632;2022-12-10T15:40:25;14.80;50.40
76573;DHT22;65437;51.088;4.632;2022-12-10T15:42:55;15.10;50.70
76573;DHT22;65437;51.088;4.632;2022-12-10T15:45:24;15.40;50.50
76573;DHT22;65437;51.088;4.632;2022-12-10T15:47:58;15.30;49.70
76573;DHT22;65437;51.088;4.632;2022-12-10T15:50:25;15.10;49.60
76573;DHT22;65437;51.088;4.632;2022-12-10T15:52:52;15.00;50.00
76573;DHT22;65437;51.088;4.632;2022-12-10T15:55:19;14.60;49.90
76573;DHT22;65437;51.088;4.632;2022-12-10T15:57:46;14.50;50.20
76573;DHT22;65437;51.088;4.632;2022-12-10T16:00:16;13.70;49.90
76573;DHT22;65437;51.088;4.632;2022-12-10T16:02:53;13.40;52.00
76573;DHT22;65437;51.088;4.632;2022-12-10T16:05:31;13.40;52.00
76573;DHT22;65437;51.088;4.632;2022-12-10T16:07:51;13.40;52.20
76573;DHT22;65437;51.088;4.632;2022-12-10T16:10:18;13.50;52.60
76573;DHT22;65437;51.088;4.632;2022-12-10T16:12:47;14.00;53.00
76573;DHT22;65437;51.088;4.632;2022-12-10T16:15:18;14.40;52.50
76573;DHT22;65437;51.088;4.632;2022-12-10T16:17:46;14.90;51.90
76573;DHT22;65437;51.088;4.632;2022-12-10T16:20:16;15.10;51.20
76573;DHT22;65437;51.088;4.632;2022-12-10T16:22:41;15.10;50.50
76573;DHT22;65437;51.088;4.632;2022-12-10T16:25:08;14.50;49.60
76573;DHT22;65437;51.088;4.632;2022-12-10T16:27:35;14.60;51.10
76573;DHT22;65437;51.088;4.632;2022-12-10T16:30:22;14.50;50.90
76573;DHT22;65437;51.088;4.632;2022-12-10T16:32:45;14.10;50.50
76573;DHT22;65437;51.088;4.632;2022-12-10T16:35:13;14.10;51.10
76573;DHT22;65437;51.088;4.632;2022-12-10T16:37:41;14.20;51.70
76573;DHT22;65437;51.088;4.632;2022-12-10T16:40:09;14.30;51.50
76573;DHT22;65437;51.088;4.632;2022-12-10T16:42:36;14.50;52.10
76573;DHT22;65437;51.088;4.632;2022-12-10T16:45:09;14.70;51.80
76573;DHT22;65437;51.088;4.632;2022-12-10T16:47:31;14.30;50.90
76573;DHT22;65437;51.088;4.632;2022-12-10T16:49:58;14.40;51.60
76573;DHT22;65437;51.088;4.632;2022-12-10T16:52:26;14.00;50.80
76573;DHT22;65437;51.088;4.632;2022-12-10T16:54:53;13.60;51.60
76573;DHT22;65437;51.088;4.632;2022-12-10T16:57:19;13.30;52.30
76573;DHT22;65437;51.088;4.632;2022-12-10T16:59:47;13.30;52.80
76573;DHT22;65437;51.088;4.632;2022-12-10T17:02:17;13.50;53.30